Hauptseite
METAR-TAF:

METAR-TAF

Flughäfen :

Montichiari

Brescia, Italien

Breite: 45-24-02N, Länge: 010-18-59E, Höhe: 104 m

Beobachtung

Neuester Wetterbericht von vor 1 Stunde und 5 Minuten, um 00:50 UTC
Wind 2 kt aus Nord/Nordost
Temperatur 18°C
Luftfeuchtigkeit 94%
Luftdruck 1011 hPa
Sichtweite 10 km oder mehr
Aufgelockert bewölkt in der Höhe von 6000 ft

METAR: LIPO 170050Z 03002KT 9999 SCT060 18/17 Q1011

Zeit: 03:55 (01:55 UTC)

Prognose

Neuester Wetterbericht von vor 2 Stunden und 55 Minuten, um 23:00 UTC
Gültige Prognose vom 17 um 00 UTC bis 17 um 24 UTC
Wind 5 kt aus unterschiedlichen Richtungen
Sichtweite 10 km oder mehr
Aufgelockert bewölkt in der Höhe von 2000 ft
Aufgelockert bewölkt in der Höhe von 6000 ft

TAF: LIPO 162300Z 1700/1724 VRB05KT 9999 SCT020 SCT060

Wetterbeobachtungen und Prognosen von mehr als 4000 Flughäfen (METAR und TAF Bericht).

Die verfügbaren Stationen werden durch gelbe und rote Markierungen auf der Karte dargestellt.

Führen Sie die Maus auf sie, um den Namen der Station zu sehen.

Darauf klicken, um die Beobachtung von Wetterbeobachtungen und Prognosen zu sehen.

Um die Karte zu ändern : klicken Sie auf den grünen Tasten mit einem schwarzen Kreuz Zum Vergrößern, auf den grünen Button mit einem Gedankenstrich zu verkleinern, oder auf die grünen Pfeile für benachbarte Karten.


METAR-TAF: